Time;durP1;ratioP1;P1;durP2;ratioP2;P2;SDS_P1;SDS_P2;PMS_P1;PMS_P2;Temp;Humidity;BMP_temperature;BMP_pressure;BME280_temperature;BME280_humidity;BME280_pressure;Samples;Min_cycle;Max_cycle;Signal;HPM_P1;HPM_P2
2022/03/22 00:01:24;;;;;;;26.77;13.35;;;2.80;93.80;;;;;;4909363;28;19926;-60
2022/03/22 00:03:52;;;;;;;30.67;13.60;;;2.70;94.30;;;;;;4908223;29;20393;-60
2022/03/22 00:06:19;;;;;;;25.83;12.38;;;2.70;94.40;;;;;;4908275;29;20039;-61
2022/03/22 00:08:46;;;;;;;22.73;12.52;;;2.70;94.80;;;;;;4905646;28;20881;-61
2022/03/22 00:11:14;;;;;;;26.60;12.82;;;2.60;95.50;;;;;;4907446;28;20062;-61
2022/03/22 00:13:43;;;;;;;29.20;13.60;;;2.60;95.60;;;;;;4908591;29;20063;-60
2022/03/22 00:16:10;;;;;;;24.48;11.93;;;2.50;96.00;;;;;;4891837;29;20050;-61
2022/03/22 00:18:57;;;;;;;25.95;12.25;;;2.50;96.00;;;;;;4906887;29;20055;-61
2022/03/22 00:21:23;;;;;;;;;;;2.50;96.70;;;;;;4908913;28;20043;-60
2022/03/22 00:23:50;;;;;;;37.65;13.95;;;2.50;97.10;;;;;;4909141;28;19937;-61
2022/03/22 00:26:18;;;;;;;31.20;13.02;;;2.50;97.60;;;;;;4906391;29;20145;-61
2022/03/22 00:28:45;;;;;;;25.15;13.10;;;2.50;98.40;;;;;;4907448;29;20043;-60
2022/03/22 00:31:12;;;;;;;21.40;11.15;;;2.50;98.20;;;;;;4907660;28;20581;-61
2022/03/22 00:33:39;;;;;;;29.50;12.15;;;2.50;98.10;;;;;;4908328;29;20217;-61
2022/03/22 00:36:06;;;;;;;21.55;11.65;;;2.50;98.20;;;;;;4908930;29;20133;-61
2022/03/22 00:38:33;;;;;;;26.33;11.90;;;2.50;98.30;;;;;;4908039;29;20241;-61
2022/03/22 00:40:59;;;;;;;23.27;12.52;;;2.50;98.30;;;;;;4908191;28;20061;-61
2022/03/22 00:43:26;;;;;;;;;;;2.50;98.50;;;;;;4908814;29;20051;-61
2022/03/22 00:45:54;;;;;;;25.58;11.27;;;2.50;98.70;;;;;;4907756;29;19926;-61
2022/03/22 00:48:21;;;;;;;28.20;12.50;;;2.40;98.90;;;;;;4906306;29;20047;-61
2022/03/22 00:50:48;;;;;;;;;;;2.40;99.00;;;;;;4907255;29;20376;-61
2022/03/22 00:53:18;;;;;;;24.83;13.35;;;2.40;99.20;;;;;;4907592;29;19989;-61
2022/03/22 00:55:47;;;;;;;25.05;12.88;;;2.40;99.90;;;;;;4908318;29;20225;-61
2022/03/22 00:58:15;;;;;;;27.10;12.70;;;2.40;99.90;;;;;;4906197;29;20889;-60
2022/03/22 01:00:42;;;;;;;24.02;11.60;;;2.30;99.90;;;;;;4907505;28;20203;-61
2022/03/22 01:03:10;;;;;;;27.50;13.43;;;2.30;99.90;;;;;;4908172;28;20505;-60
2022/03/22 01:05:37;;;;;;;25.10;11.48;;;2.30;99.90;;;;;;4908232;29;20134;-60
2022/03/22 01:08:10;;;;;;;24.50;12.18;;;2.30;99.90;;;;;;4906692;29;20066;-61
2022/03/22 01:10:41;;;;;;;23.05;12.90;;;2.30;99.90;;;;;;4906753;28;20043;-61
2022/03/22 01:13:11;;;;;;;20.52;11.80;;;2.20;99.90;;;;;;4905911;29;20603;-61
2022/03/22 01:15:39;;;;;;;24.23;12.13;;;2.20;99.90;;;;;;4907307;29;20070;-61
2022/03/22 01:18:08;;;;;;;24.23;11.40;;;2.20;99.90;;;;;;4907483;29;20040;-61
2022/03/22 01:20:38;;;;;;;26.10;14.10;;;2.10;99.90;;;;;;4906676;28;20375;-61
2022/03/22 01:23:07;;;;;;;26.60;14.88;;;2.00;99.90;;;;;;4908000;29;20585;-61
2022/03/22 01:25:35;;;;;;;31.55;14.23;;;2.00;99.90;;;;;;4907689;29;20141;-61
2022/03/22 01:28:04;;;;;;;33.85;16.15;;;1.80;99.90;;;;;;4907107;29;20055;-61
2022/03/22 01:30:32;;;;;;;37.63;16.40;;;1.70;99.90;;;;;;4906277;28;20059;-61
2022/03/22 01:32:59;;;;;;;42.78;20.00;;;1.70;99.90;;;;;;4903317;29;20552;-61
2022/03/22 01:35:29;;;;;;;33.97;17.13;;;1.60;99.90;;;;;;4902485;29;20221;-61
2022/03/22 01:37:57;;;;;;;33.33;16.52;;;1.60;99.90;;;;;;4900985;29;20111;-61
2022/03/22 01:40:26;;;;;;;34.13;16.52;;;1.60;99.90;;;;;;4904205;28;20039;-61
2022/03/22 01:42:54;;;;;;;30.05;14.63;;;1.60;99.90;;;;;;4905109;29;20217;-61
2022/03/22 01:45:21;;;;;;;34.22;13.32;;;1.60;99.90;;;;;;4905372;29;20899;-61
2022/03/22 01:47:49;;;;;;;30.98;15.43;;;1.60;99.90;;;;;;4905086;29;20293;-61
2022/03/22 01:50:22;;;;;;;37.42;16.05;;;1.60;99.90;;;;;;4905908;29;20265;-61
2022/03/22 01:52:49;;;;;;;30.77;14.38;;;1.60;99.90;;;;;;4905888;29;20074;-61
2022/03/22 01:55:19;;;;;;;26.52;13.85;;;1.60;99.90;;;;;;4907492;29;20047;-61
2022/03/22 01:57:47;;;;;;;34.72;13.88;;;1.60;99.90;;;;;;4905343;29;20043;-61
2022/03/22 02:00:17;;;;;;;31.77;15.98;;;1.50;99.90;;;;;;4904551;28;20044;-61
2022/03/22 02:08:34;;;;;;;28.48;14.55;;;1.40;99.90;;;;;;4873602;29;20062;-61
2022/03/22 02:11:01;;;;;;;;;;;1.40;99.90;;;;;;4906484;28;20058;-61
2022/03/22 02:13:31;;;;;;;25.23;12.50;;;1.40;99.90;;;;;;4907781;29;20495;-61
2022/03/22 02:16:01;;;;;;;29.75;14.80;;;1.40;99.90;;;;;;4906921;29;20301;-61
2022/03/22 02:18:29;;;;;;;23.50;12.73;;;1.40;99.90;;;;;;4904963;29;20842;-61
2022/03/22 02:20:58;;;;;;;25.73;13.32;;;1.40;99.90;;;;;;4906055;28;20096;-61
2022/03/22 02:23:41;;;;;;;30.98;15.13;;;1.40;99.90;;;;;;4905849;29;20039;-61
2022/03/22 02:26:08;;;;;;;25.67;14.07;;;1.40;99.90;;;;;;4906795;29;20035;-61
2022/03/22 02:28:35;;;;;;;35.28;14.40;;;1.30;99.90;;;;;;4889476;29;20047;-61
2022/03/22 02:31:02;;;;;;;29.67;13.77;;;1.30;99.90;;;;;;4906083;28;20055;-61
2022/03/22 02:33:29;;;;;;;30.52;15.05;;;1.30;99.90;;;;;;4904692;29;20561;-61
2022/03/22 02:35:56;;;;;;;25.60;13.50;;;1.40;99.90;;;;;;4906457;29;20194;-61
2022/03/22 02:38:23;;;;;;;;;;;1.40;99.90;;;;;;4905972;29;20066;-61
2022/03/22 02:40:49;;;;;;;23.35;12.52;;;1.40;99.90;;;;;;4904635;28;19923;-61
2022/03/22 02:43:16;;;;;;;;;;;1.40;99.90;;;;;;4905772;28;20584;-61
2022/03/22 02:45:43;;;;;;;22.05;12.23;;;1.40;99.90;;;;;;4906509;28;20444;-61
2022/03/22 02:48:11;;;;;;;38.55;15.60;;;1.30;99.90;;;;;;4905408;29;20476;-64
2022/03/22 02:50:38;;;;;;;30.92;12.20;;;1.30;99.90;;;;;;4906000;29;20054;-61
2022/03/22 02:53:05;;;;;;;31.27;13.35;;;1.20;99.90;;;;;;4904766;29;20043;-61
2022/03/22 02:55:32;;;;;;;30.08;14.82;;;1.20;99.90;;;;;;4906215;29;20058;-61
2022/03/22 02:58:00;;;;;;;19.95;12.15;;;1.30;99.90;;;;;;4903309;29;20145;-61
2022/03/22 03:00:27;;;;;;;25.88;13.65;;;1.30;99.90;;;;;;4906474;28;20043;-61
2022/03/22 03:02:54;;;;;;;24.52;12.25;;;1.20;99.90;;;;;;4905182;29;20050;-61
2022/03/22 03:05:22;;;;;;;23.52;12.55;;;1.10;99.90;;;;;;4904651;29;20571;-61
2022/03/22 03:07:51;;;;;;;24.90;13.50;;;1.20;99.90;;;;;;4906232;29;20043;-61
2022/03/22 03:10:19;;;;;;;23.25;12.75;;;1.20;99.90;;;;;;4905360;28;20262;-61
2022/03/22 03:12:46;;;;;;;24.60;12.52;;;1.10;99.90;;;;;;4887974;29;20586;-61
2022/03/22 03:15:13;;;;;;;24.50;12.75;;;1.10;99.90;;;;;;4906467;29;20055;-61
2022/03/22 03:17:40;;;;;;;33.95;15.05;;;1.10;99.90;;;;;;4904591;29;20047;-61
2022/03/22 03:20:07;;;;;;;;;;;1.10;99.90;;;;;;4905842;28;20035;-61
2022/03/22 03:22:34;;;;;;;22.35;13.60;;;1.10;99.90;;;;;;4906107;29;19932;-61
2022/03/22 03:25:01;;;;;;;23.10;13.25;;;1.20;99.90;;;;;;4904640;29;20044;-61
2022/03/22 03:27:27;;;;;;;;;;;1.20;99.90;;;;;;4905933;28;20828;-61
2022/03/22 03:29:54;;;;;;;22.10;12.05;;;1.20;99.90;;;;;;4909533;28;19922;-61
2022/03/22 03:32:21;;;;;;;26.05;13.90;;;1.20;99.90;;;;;;4908727;29;20050;-61
2022/03/22 03:34:48;;;;;;;;;;;1.20;99.90;;;;;;4909084;29;20058;-61
2022/03/22 03:37:16;;;;;;;27.35;12.93;;;1.20;99.90;;;;;;4908558;28;20720;-61
2022/03/22 03:39:43;;;;;;;22.30;12.43;;;1.20;99.90;;;;;;4908029;28;20536;-60
2022/03/22 03:42:10;;;;;;;19.80;10.88;;;1.20;99.90;;;;;;4908047;29;20815;-61
2022/03/22 03:47:23;;;;;;;20.48;12.05;;;1.10;99.90;;;;;;4908534;28;20047;-61
2022/03/22 03:49:56;;;;;;;28.20;12.35;;;1.10;99.90;;;;;;4906278;29;20054;-61
2022/03/22 03:52:34;;;;;;;26.95;12.98;;;1.10;99.90;;;;;;4906734;29;20054;-61
2022/03/22 03:55:05;;;;;;;20.00;12.75;;;1.10;99.90;;;;;;4908329;29;20505;-61
2022/03/22 03:57:32;;;;;;;21.95;11.85;;;1.10;99.90;;;;;;4907416;29;20136;-61
2022/03/22 03:59:59;;;;;;;22.27;11.68;;;1.10;99.90;;;;;;4908835;28;20043;-61
2022/03/22 04:02:26;;;;;;;32.30;14.30;;;1.10;99.90;;;;;;4907720;29;20214;-61
2022/03/22 04:04:55;;;;;;;23.08;11.50;;;1.10;99.90;;;;;;4890544;29;20355;-61
2022/03/22 04:07:24;;;;;;;24.73;13.50;;;1.00;99.90;;;;;;4908943;29;20051;-61
2022/03/22 04:09:52;;;;;;;22.48;12.65;;;1.00;99.90;;;;;;4906852;29;20709;-61
2022/03/22 04:12:19;;;;;;;27.70;13.63;;;1.00;99.90;;;;;;4907823;29;20057;-61
2022/03/22 04:14:51;;;;;;;24.27;13.25;;;0.90;99.90;;;;;;4909119;29;20547;-61
2022/03/22 04:17:19;;;;;;;32.17;14.27;;;0.90;99.90;;;;;;4909152;29;20449;-61
2022/03/22 04:19:46;;;;;;;20.27;11.20;;;0.90;99.90;;;;;;4889468;29;20057;-61
2022/03/22 04:22:13;;;;;;;21.05;12.00;;;0.80;99.90;;;;;;4891150;29;20183;-61
2022/03/22 04:24:41;;;;;;;19.63;11.13;;;0.80;99.90;;;;;;4908612;29;20233;-61
2022/03/22 04:32:42;;;;;;;25.75;12.75;;;0.70;99.90;;;;;;4909695;29;20043;-61
2022/03/22 04:35:14;;;;;;;21.42;12.02;;;0.70;99.90;;;;;;4907770;29;20188;-61
2022/03/22 04:37:41;;;;;;;25.95;12.50;;;0.60;99.90;;;;;;4907503;28;20050;-60
2022/03/22 04:40:10;;;;;;;22.08;12.45;;;0.60;99.90;;;;;;4906645;28;20494;-61
2022/03/22 04:42:37;;;;;;;20.65;11.02;;;0.60;99.90;;;;;;4890716;29;20154;-60
2022/03/22 04:45:05;;;;;;;24.55;11.88;;;0.60;99.90;;;;;;4910089;29;20051;-61
2022/03/22 04:47:35;;;;;;;20.90;13.50;;;0.60;99.90;;;;;;4907358;29;20281;-61
2022/03/22 04:50:04;;;;;;;21.50;12.88;;;0.60;99.90;;;;;;4888897;29;20059;-61
2022/03/22 04:58:03;;;;;;;32.47;12.35;;;0.50;99.90;;;;;;4906196;29;20576;-61
2022/03/22 05:00:34;;;;;;;21.10;11.13;;;0.40;99.90;;;;;;4907369;28;20051;-61
2022/03/22 05:03:02;;;;;;;21.13;11.85;;;0.40;99.90;;;;;;4906200;29;20409;-60
2022/03/22 05:08:15;;;;;;;27.92;13.80;;;0.50;99.90;;;;;;4907872;29;20226;-61
2022/03/22 05:10:42;;;;;;;23.63;11.68;;;0.50;99.90;;;;;;4906366;28;20051;-61
2022/03/22 05:13:09;;;;;;;30.13;12.45;;;0.50;99.90;;;;;;4907860;29;20054;-60
2022/03/22 05:15:37;;;;;;;21.13;11.60;;;0.50;99.90;;;;;;4908301;29;20039;-61
2022/03/22 05:18:04;;;;;;;23.15;11.15;;;0.50;99.90;;;;;;4908476;28;20054;-63
2022/03/22 05:20:32;;;;;;;18.70;11.73;;;0.60;99.90;;;;;;4857029;29;20532;-62
2022/03/22 05:22:59;;;;;;;23.23;10.55;;;0.60;99.90;;;;;;4908383;29;20588;-62
2022/03/22 05:25:31;;;;;;;25.48;12.88;;;0.60;99.90;;;;;;4905459;29;20127;-62
2022/03/22 05:28:03;;;;;;;22.55;11.88;;;0.60;99.90;;;;;;4907373;29;20040;-61
2022/03/22 05:30:31;;;;;;;20.45;11.35;;;0.60;99.90;;;;;;4905598;28;20062;-61
2022/03/22 05:32:59;;;;;;;24.02;11.30;;;0.70;99.90;;;;;;4903815;29;20272;-61
2022/03/22 05:35:27;;;;;;;23.27;11.57;;;0.70;99.90;;;;;;4887975;29;20057;-61
2022/03/22 05:37:53;;;;;;;18.50;10.48;;;0.70;99.90;;;;;;4906254;29;20051;-61
2022/03/22 05:40:21;;;;;;;19.73;10.63;;;0.70;99.90;;;;;;4906460;28;20189;-63
2022/03/22 05:42:48;;;;;;;20.45;10.30;;;0.70;99.90;;;;;;4890341;29;20062;-63
2022/03/22 05:45:15;;;;;;;17.30;9.95;;;0.70;99.90;;;;;;4905841;29;20485;-63
2022/03/22 05:47:43;;;;;;;22.08;12.27;;;0.70;99.90;;;;;;4905912;29;20046;-62
2022/03/22 05:50:10;;;;;;;24.95;11.35;;;0.70;99.90;;;;;;4904719;28;20641;-64
2022/03/22 05:52:45;;;;;;;21.45;10.77;;;0.70;99.90;;;;;;4907177;29;20047;-64
2022/03/22 05:55:12;;;;;;;18.90;10.60;;;0.80;99.90;;;;;;4888933;29;20055;-63
2022/03/22 05:57:40;;;;;;;18.20;9.82;;;0.90;99.90;;;;;;4907330;29;20051;-63
2022/03/22 06:00:09;;;;;;;17.80;10.32;;;1.00;99.90;;;;;;4904497;28;20755;-61
2022/03/22 06:02:40;;;;;;;17.08;10.55;;;1.00;99.90;;;;;;4904853;29;20138;-61
2022/03/22 06:05:09;;;;;;;21.52;10.65;;;1.10;99.90;;;;;;4906260;29;20043;-60
2022/03/22 06:07:36;;;;;;;21.98;11.02;;;1.10;99.90;;;;;;4906958;29;20451;-62
2022/03/22 06:10:04;;;;;;;20.00;10.68;;;1.20;99.90;;;;;;4906246;28;20059;-61
2022/03/22 06:12:40;;;;;;;18.67;10.45;;;1.30;99.90;;;;;;4906241;28;20117;-62
2022/03/22 06:15:16;;;;;;;16.85;10.57;;;1.30;99.90;;;;;;4907252;29;20043;-61
2022/03/22 06:17:47;;;;;;;24.33;12.15;;;1.40;99.90;;;;;;4905246;29;20129;-61
2022/03/22 06:20:15;;;;;;;22.67;12.05;;;1.50;99.90;;;;;;4906499;28;20058;-63
2022/03/22 06:22:42;;;;;;;21.52;11.20;;;1.50;99.90;;;;;;4905741;29;20890;-63
2022/03/22 06:25:10;;;;;;;17.88;10.80;;;1.70;99.90;;;;;;4906801;29;20101;-61
2022/03/22 06:27:37;;;;;;;20.08;10.55;;;1.80;99.90;;;;;;4907659;29;20051;-61
2022/03/22 06:30:05;;;;;;;17.88;9.55;;;1.90;99.60;;;;;;4905653;28;20636;-60
2022/03/22 06:32:49;;;;;;;15.38;9.48;;;2.00;99.00;;;;;;4905998;29;20389;-61
2022/03/22 06:35:19;;;;;;;19.80;9.70;;;2.10;99.30;;;;;;4904775;29;20051;-56
2022/03/22 06:37:46;;;;;;;19.70;10.77;;;2.20;99.90;;;;;;4886497;29;20039;-56
2022/03/22 06:40:15;;;;;;;14.98;9.32;;;2.40;99.90;;;;;;4903315;28;20119;-56
2022/03/22 06:42:43;;;;;;;16.15;10.05;;;2.60;99.50;;;;;;4904536;28;20568;-55
2022/03/22 06:45:11;;;;;;;18.55;11.50;;;2.90;98.40;;;;;;4904516;29;20046;-56
2022/03/22 06:47:39;;;;;;;19.13;10.65;;;3.30;97.80;;;;;;4905475;29;20031;-56
2022/03/22 06:50:08;;;;;;;16.05;9.48;;;3.60;95.80;;;;;;4901771;28;20133;-56
2022/03/22 06:52:36;;;;;;;20.92;10.48;;;3.90;94.10;;;;;;4903577;28;20040;-56
2022/03/22 06:55:04;;;;;;;16.80;10.38;;;4.10;92.90;;;;;;4904525;29;20337;-56
2022/03/22 06:57:31;;;;;;;21.45;10.10;;;4.40;91.90;;;;;;4903073;29;20051;-56
2022/03/22 07:00:00;;;;;;;21.15;10.75;;;4.70;90.20;;;;;;4903244;28;20943;-56
2022/03/22 07:02:27;;;;;;;16.48;10.05;;;5.00;87.10;;;;;;4907448;28;20465;-57
2022/03/22 07:04:54;;;;;;;17.35;9.57;;;5.30;83.60;;;;;;4890135;29;20062;-56
2022/03/22 07:07:22;;;;;;;18.05;10.00;;;5.50;79.60;;;;;;4906970;29;20361;-56
2022/03/22 07:09:49;;;;;;;16.17;10.52;;;5.70;80.30;;;;;;4907121;28;20051;-57
2022/03/22 07:12:16;;;;;;;;;;;5.70;79.50;;;;;;4908275;29;20047;-56
2022/03/22 07:14:44;;;;;;;;;;;5.80;79.30;;;;;;4908693;29;19923;-55
2022/03/22 07:17:11;;;;;;;19.98;10.05;;;6.00;80.60;;;;;;4904656;29;20009;-58
2022/03/22 07:19:38;;;;;;;17.20;9.63;;;6.20;79.50;;;;;;4905093;28;20039;-58
2022/03/22 07:22:06;;;;;;;17.02;10.80;;;6.30;78.80;;;;;;4908021;29;20609;-55
2022/03/22 07:24:34;;;;;;;15.23;10.30;;;6.40;79.70;;;;;;4890210;29;20115;-57
2022/03/22 07:27:00;;;;;;;21.35;10.82;;;6.50;80.30;;;;;;4907784;29;20043;-57
2022/03/22 07:29:28;;;;;;;25.05;10.23;;;6.60;79.30;;;;;;4904344;28;20043;-55
2022/03/22 07:31:56;;;;;;;21.17;10.65;;;6.80;78.40;;;;;;4889118;29;20217;-55
2022/03/22 07:34:24;;;;;;;26.67;10.43;;;7.30;77.70;;;;;;4905268;29;20609;-55
2022/03/22 07:36:52;;;;;;;17.40;11.05;;;7.80;76.40;;;;;;4906075;29;20046;-54
2022/03/22 07:39:21;;;;;;;21.85;11.82;;;8.20;73.60;;;;;;4904324;28;20603;-57
2022/03/22 07:41:48;;;;;;;19.80;9.82;;;8.60;71.70;;;;;;4905157;28;20035;-59
2022/03/22 07:44:15;;;;;;;24.42;10.77;;;8.90;70.20;;;;;;4906812;29;20129;-57
2022/03/22 07:46:43;;;;;;;23.48;11.77;;;9.10;68.50;;;;;;4907586;29;20047;-58
2022/03/22 07:54:43;;;;;;;27.63;11.32;;;10.20;67.10;;;;;;4907613;29;20053;-56
2022/03/22 07:57:10;;;;;;;26.23;11.75;;;10.60;64.00;;;;;;4905972;29;20044;-57
2022/03/22 07:59:37;;;;;;;25.38;11.00;;;11.10;64.10;;;;;;4887539;28;20120;-57
2022/03/22 08:02:04;;;;;;;21.63;12.05;;;11.50;63.40;;;;;;4907212;29;20071;-58
2022/03/22 08:04:32;;;;;;;24.75;13.43;;;11.90;59.60;;;;;;4906968;29;20154;-57
2022/03/22 08:06:59;;;;;;;;;;;12.10;58.90;;;;;;4907699;29;20047;-58
2022/03/22 08:09:26;;;;;;;27.40;12.40;;;12.40;58.40;;;;;;4905193;28;19929;-59
2022/03/22 08:11:53;;;;;;;18.45;11.88;;;12.70;58.30;;;;;;4903400;28;20560;-59
2022/03/22 08:14:20;;;;;;;16.92;11.70;;;13.00;59.10;;;;;;4903991;29;20077;-60
2022/03/22 08:16:47;;;;;;;24.40;12.52;;;13.30;58.20;;;;;;4906972;28;20039;-57
2022/03/22 08:19:18;;;;;;;23.30;11.55;;;13.60;56.00;;;;;;4905008;29;20035;-67
2022/03/22 08:21:48;;;;;;;21.17;11.88;;;13.80;55.30;;;;;;4905922;29;20386;-57
2022/03/22 08:24:15;;;;;;;22.35;12.82;;;14.00;54.30;;;;;;4907354;29;20963;-56
2022/03/22 08:26:42;;;;;;;43.25;13.45;;;14.30;54.30;;;;;;4905991;29;20035;-51
2022/03/22 08:29:09;;;;;;;24.95;12.27;;;14.60;52.30;;;;;;4905077;29;20040;-57
2022/03/22 08:31:42;;;;;;;29.23;13.75;;;14.80;51.30;;;;;;4905732;29;20054;-59
2022/03/22 08:34:09;;;;;;;27.38;14.27;;;15.00;51.20;;;;;;4903456;29;20911;-56
2022/03/22 08:36:36;;;;;;;26.77;13.57;;;15.20;50.70;;;;;;4886755;29;20052;-57
2022/03/22 08:39:03;;;;;;;;;;;15.40;48.70;;;;;;4904433;29;20604;-57
2022/03/22 08:41:31;;;;;;;22.83;13.65;;;15.50;48.90;;;;;;4903997;28;19929;-56
2022/03/22 08:43:58;;;;;;;25.52;14.07;;;15.80;48.30;;;;;;4902692;29;20047;-56
2022/03/22 08:46:25;;;;;;;21.42;12.18;;;15.90;48.40;;;;;;4904460;29;20050;-57
2022/03/22 08:48:53;;;;;;;27.15;13.75;;;16.00;48.90;;;;;;4904400;28;20285;-58
2022/03/22 08:51:24;;;;;;;30.13;13.60;;;16.20;48.20;;;;;;4904261;29;20058;-57
2022/03/22 08:53:54;;;;;;;23.90;14.07;;;16.50;48.40;;;;;;4904359;29;20954;-65
2022/03/22 08:56:22;;;;;;;21.23;13.63;;;16.70;47.40;;;;;;4905649;29;20150;-62
2022/03/22 08:58:53;;;;;;;22.40;13.13;;;16.90;46.00;;;;;;4905534;29;20577;-63
2022/03/22 09:01:30;;;;;;;20.15;13.25;;;17.20;45.90;;;;;;4902168;29;20043;-62
2022/03/22 09:06:45;;;;;;;16.52;11.70;;;17.40;44.70;;;;;;4905476;29;20665;-64
2022/03/22 09:09:13;;;;;;;19.23;11.52;;;17.70;43.80;;;;;;4905368;29;20202;-65
2022/03/22 09:11:40;;;;;;;18.48;11.52;;;17.80;44.00;;;;;;4905701;28;20866;-62
2022/03/22 09:14:07;;;;;;;26.98;12.52;;;17.90;43.30;;;;;;4904395;29;20149;-62
2022/03/22 09:16:35;;;;;;;17.08;11.40;;;18.00;41.40;;;;;;4905530;29;20051;-62
2022/03/22 09:19:02;;;;;;;15.13;10.30;;;18.00;42.60;;;;;;4902598;29;20054;-62
2022/03/22 09:21:29;;;;;;;20.52;10.75;;;18.10;42.50;;;;;;4905500;28;20047;-62
2022/03/22 09:23:57;;;;;;;21.90;12.32;;;18.30;41.70;;;;;;4903766;28;20144;-62
2022/03/22 09:26:24;;;;;;;17.90;10.75;;;18.30;40.10;;;;;;4907104;28;20130;-63
2022/03/22 09:28:52;;;;;;;16.08;10.27;;;18.30;38.60;;;;;;4904782;29;20142;-63
2022/03/22 09:31:20;;;;;;;28.15;11.90;;;18.20;40.30;;;;;;4902095;28;20054;-63
2022/03/22 09:33:48;;;;;;;21.08;11.98;;;18.30;41.70;;;;;;4886463;29;20248;-57
2022/03/22 09:36:16;;;;;;;15.60;11.90;;;18.50;42.50;;;;;;4902461;29;20062;-58
2022/03/22 09:38:44;;;;;;;22.25;13.20;;;18.70;40.80;;;;;;4903081;29;20119;-57
2022/03/22 09:41:16;;;;;;;23.17;13.43;;;18.90;40.10;;;;;;4903225;28;20561;-57
2022/03/22 09:43:47;;;;;;;24.55;14.77;;;19.00;40.00;;;;;;4899822;29;20061;-57
2022/03/22 09:46:20;;;;;;;26.27;15.00;;;19.10;39.70;;;;;;4905858;29;20036;-57
2022/03/22 09:48:48;;;;;;;22.63;15.10;;;19.20;41.20;;;;;;4870786;29;20278;-57
2022/03/22 09:54:03;;;;;;;19.33;13.43;;;19.50;41.10;;;;;;4885865;29;20048;-57
2022/03/22 09:56:30;;;;;;;20.63;13.05;;;19.40;41.10;;;;;;4869517;29;20055;-59
2022/03/22 09:59:03;;;;;;;26.08;14.30;;;19.40;41.40;;;;;;4885568;29;20146;-59
2022/03/22 10:01:31;;;;;;;19.33;14.02;;;19.60;40.50;;;;;;4904608;28;20035;-57
2022/03/22 10:04:04;;;;;;;21.13;13.75;;;19.70;39.60;;;;;;4905586;29;20032;-58
2022/03/22 10:06:32;;;;;;;24.85;14.73;;;19.70;40.60;;;;;;4905082;29;20043;-58
2022/03/22 10:08:59;;;;;;;24.63;14.98;;;19.80;39.60;;;;;;4904548;28;20047;-57
2022/03/22 10:11:36;;;;;;;22.92;14.55;;;19.80;38.90;;;;;;4904313;28;20162;-57
2022/03/22 10:14:04;;;;;;;23.50;14.57;;;19.90;40.00;;;;;;4905334;29;20216;-59
2022/03/22 10:16:31;;;;;;;23.73;15.63;;;20.00;39.10;;;;;;4903449;29;20623;-57
2022/03/22 10:18:59;;;;;;;26.55;15.43;;;20.10;39.40;;;;;;4901723;28;20861;-59
2022/03/22 10:21:26;;;;;;;23.45;15.73;;;20.10;39.60;;;;;;4905171;28;20039;-58
2022/03/22 10:23:55;;;;;;;19.92;13.95;;;20.00;39.30;;;;;;4901648;29;20054;-57
2022/03/22 10:26:33;;;;;;;17.90;13.77;;;20.00;39.10;;;;;;4904697;29;20126;-57
2022/03/22 10:29:00;;;;;;;18.48;13.07;;;19.90;38.40;;;;;;4887235;29;20057;-59
2022/03/22 10:31:40;;;;;;;22.23;13.75;;;20.00;38.90;;;;;;4904879;28;20548;-59
2022/03/22 10:34:10;;;;;;;22.30;14.80;;;20.10;37.40;;;;;;4901196;29;20044;-57
2022/03/22 10:36:38;;;;;;;25.52;14.48;;;19.90;36.90;;;;;;4904316;28;20059;-58
2022/03/22 10:39:10;;;;;;;22.80;14.68;;;19.40;36.40;;;;;;4904520;29;20047;-57
2022/03/22 10:41:40;;;;;;;19.83;13.98;;;19.10;37.10;;;;;;4900781;28;20051;-59
2022/03/22 10:44:21;;;;;;;22.73;13.63;;;18.90;38.80;;;;;;4904649;29;20039;-58
2022/03/22 10:46:48;;;;;;;21.27;12.48;;;19.10;37.10;;;;;;4903566;29;20078;-57
2022/03/22 10:49:17;;;;;;;20.85;14.02;;;19.30;36.60;;;;;;4902821;29;20310;-58
2022/03/22 10:51:59;;;;;;;19.33;12.52;;;19.40;36.30;;;;;;4903795;29;20054;-58
2022/03/22 10:54:26;;;;;;;27.50;13.38;;;19.40;36.30;;;;;;4904590;29;20146;-59
2022/03/22 10:56:55;;;;;;;21.58;14.18;;;19.50;37.20;;;;;;4902827;29;20047;-57
2022/03/22 10:59:29;;;;;;;18.75;12.80;;;19.60;36.40;;;;;;4904124;28;20047;-58
2022/03/22 11:01:57;;;;;;;19.15;13.23;;;19.70;34.50;;;;;;4885561;29;20578;-59
2022/03/22 11:04:24;;;;;;;19.77;13.50;;;19.80;34.60;;;;;;4884732;29;20131;-58
2022/03/22 11:06:54;;;;;;;23.33;12.52;;;19.90;35.00;;;;;;4884204;29;20274;-58
2022/03/22 11:09:21;;;;;;;19.48;13.65;;;19.80;34.00;;;;;;4867313;29;20036;-59
2022/03/22 11:11:50;;;;;;;26.75;12.80;;;19.90;33.50;;;;;;4885777;29;20570;-58
2022/03/22 11:14:18;;;;;;;18.63;12.80;;;20.00;32.90;;;;;;4869390;29;20064;-58
2022/03/22 11:16:48;;;;;;;23.23;13.88;;;20.00;34.30;;;;;;4869138;29;20056;-58
2022/03/22 11:19:21;;;;;;;22.80;13.90;;;19.90;34.70;;;;;;4897640;28;20039;-58
2022/03/22 11:21:48;;;;;;;19.45;14.05;;;19.80;34.10;;;;;;4904318;29;20035;-58
2022/03/22 11:24:24;;;;;;;26.33;14.35;;;19.60;35.60;;;;;;4902832;29;20423;-58
2022/03/22 11:26:55;;;;;;;21.65;14.63;;;19.40;35.20;;;;;;4901552;29;20047;-58
2022/03/22 11:29:25;;;;;;;23.13;13.18;;;19.40;35.20;;;;;;4903476;28;20127;-58
2022/03/22 11:34:39;;;;;;;20.35;13.45;;;19.70;34.90;;;;;;4903258;29;20055;-59
2022/03/22 11:37:09;;;;;;;20.70;14.38;;;19.80;35.10;;;;;;4884602;29;20043;-58
2022/03/22 11:42:24;;;;;;;25.08;14.95;;;19.80;33.60;;;;;;4901365;29;20047;-58
2022/03/22 11:44:54;;;;;;;26.42;15.45;;;19.90;34.50;;;;;;4904165;29;20051;-59
2022/03/22 11:47:22;;;;;;;21.58;14.48;;;19.80;34.30;;;;;;4902144;28;20191;-58
2022/03/22 11:49:54;;;;;;;20.38;13.73;;;19.90;34.20;;;;;;4905787;29;20051;-59
2022/03/22 11:52:26;;;;;;;20.70;13.73;;;20.00;33.90;;;;;;4908271;28;20058;-58
2022/03/22 11:54:56;;;;;;;17.17;13.80;;;19.90;35.50;;;;;;4907920;29;20054;-56
2022/03/22 11:57:23;;;;;;;19.27;13.60;;;20.00;34.70;;;;;;4906010;29;20561;-58
2022/03/22 11:59:53;;;;;;;18.42;14.02;;;20.20;33.80;;;;;;4904539;28;20062;-58
2022/03/22 12:02:26;;;;;;;20.15;13.90;;;20.30;34.00;;;;;;4906965;29;20062;-60
2022/03/22 12:04:57;;;;;;;20.90;14.15;;;20.10;33.60;;;;;;4888532;28;20279;-58
2022/03/22 12:07:28;;;;;;;26.45;14.20;;;20.10;32.60;;;;;;4906133;29;20047;-56
2022/03/22 12:10:17;;;;;;;19.13;13.93;;;19.90;33.30;;;;;;4905981;28;20576;-59
2022/03/22 12:12:54;;;;;;;26.95;15.30;;;19.70;34.60;;;;;;4906306;29;20059;-60
2022/03/22 12:15:23;;;;;;;25.75;15.60;;;19.80;34.10;;;;;;4890035;29;20312;-59
2022/03/22 12:17:52;;;;;;;19.50;14.48;;;19.60;33.80;;;;;;4906338;28;20133;-57
2022/03/22 12:20:21;;;;;;;18.63;13.80;;;19.60;32.90;;;;;;4905651;28;20047;-57
2022/03/22 12:22:59;;;;;;;20.17;12.93;;;19.60;32.80;;;;;;4903877;29;20414;-56
2022/03/22 12:25:30;;;;;;;20.58;13.77;;;19.50;31.60;;;;;;4885147;29;20348;-58
2022/03/22 12:28:01;;;;;;;23.73;13.63;;;19.60;30.90;;;;;;4905563;29;20257;-57
2022/03/22 12:30:33;;;;;;;18.85;12.50;;;19.70;30.60;;;;;;4903117;28;20540;-56
2022/03/22 12:33:03;;;;;;;22.42;14.70;;;19.80;30.40;;;;;;4903924;29;20081;-58
2022/03/22 12:35:30;;;;;;;25.83;12.05;;;19.90;31.00;;;;;;4902589;29;20397;-58
2022/03/22 12:37:57;;;;;;;16.20;12.35;;;19.90;31.20;;;;;;4904013;29;20054;-59
2022/03/22 12:40:24;;;;;;;15.20;11.30;;;19.90;30.40;;;;;;4902401;28;20055;-58
2022/03/22 12:42:54;;;;;;;18.98;12.27;;;19.90;30.50;;;;;;4903921;29;20874;-58
2022/03/22 12:45:23;;;;;;;16.98;11.18;;;19.90;29.10;;;;;;4904912;29;20043;-58
2022/03/22 12:47:50;;;;;;;19.42;10.60;;;20.00;29.40;;;;;;4903941;29;20404;-58
2022/03/22 12:50:19;;;;;;;14.57;10.35;;;20.20;29.80;;;;;;4905105;29;20542;-58
2022/03/22 12:52:47;;;;;;;11.25;9.57;;;20.10;28.70;;;;;;4902758;28;20052;-58
2022/03/22 12:55:16;;;;;;;12.55;8.98;;;20.20;28.10;;;;;;4905363;29;20066;-59
2022/03/22 12:57:48;;;;;;;9.80;7.95;;;20.30;28.30;;;;;;4904023;29;20357;-58
2022/03/22 13:00:32;;;;;;;19.98;10.40;;;20.40;26.30;;;;;;4903332;28;20545;-56
2022/03/22 13:03:07;;;;;;;16.20;9.10;;;20.30;27.50;;;;;;4866654;29;20154;-58
2022/03/22 13:05:40;;;;;;;14.77;8.45;;;20.40;26.90;;;;;;4884561;29;20341;-59
2022/03/22 13:08:26;;;;;;;11.13;8.73;;;20.50;26.30;;;;;;4902512;29;20051;-58
2022/03/22 13:16:34;;;;;;;11.77;7.38;;;20.90;25.20;;;;;;4910406;28;20230;-60
2022/03/22 13:19:03;;;;;;;12.05;7.82;;;21.00;25.00;;;;;;4903039;29;20055;-58
2022/03/22 13:21:32;;;;;;;9.88;7.57;;;21.10;24.50;;;;;;4905535;28;20054;-59
2022/03/22 13:24:00;;;;;;;13.43;7.60;;;21.20;24.20;;;;;;4906555;29;20048;-59
2022/03/22 13:26:27;;;;;;;13.55;7.80;;;21.20;25.70;;;;;;4905107;29;20369;-58
2022/03/22 13:28:54;;;;;;;9.25;7.43;;;21.20;25.00;;;;;;4905617;29;20368;-59
2022/03/22 13:31:25;;;;;;;12.50;7.97;;;21.20;25.00;;;;;;4905306;28;20047;-59